sensor_id;sensor_type;location;lat;lon;timestamp;pressure;altitude;pressure_sealevel;temperature;humidity
68399;BME280;56258;52.196;13.868;2023-02-01T00:01:09;100699.59;;;19.67;33.13
68399;BME280;56258;52.196;13.868;2023-02-01T00:03:36;100697.28;;;19.64;33.16
68399;BME280;56258;52.196;13.868;2023-02-01T00:06:03;100693.28;;;19.60;33.31
68399;BME280;56258;52.196;13.868;2023-02-01T00:08:30;100689.25;;;19.56;33.24
68399;BME280;56258;52.196;13.868;2023-02-01T00:11:01;100694.94;;;19.61;33.41
68399;BME280;56258;52.196;13.868;2023-02-01T00:13:30;100701.41;;;19.52;33.53
68399;BME280;56258;52.196;13.868;2023-02-01T00:16:12;100690.13;;;19.57;33.63
68399;BME280;56258;52.196;13.868;2023-02-01T00:18:39;100690.53;;;19.68;33.38
68399;BME280;56258;52.196;13.868;2023-02-01T00:21:06;100689.13;;;19.87;32.91
68399;BME280;56258;52.196;13.868;2023-02-01T00:23:36;100697.09;;;20.03;33.02
68399;BME280;56258;52.196;13.868;2023-02-01T00:26:05;100686.66;;;20.15;32.79
68399;BME280;56258;52.196;13.868;2023-02-01T00:28:33;100686.38;;;20.25;32.67
68399;BME280;56258;52.196;13.868;2023-02-01T00:31:01;100689.91;;;20.40;32.57
68399;BME280;56258;52.196;13.868;2023-02-01T00:33:31;100689.19;;;20.46;32.34
68399;BME280;56258;52.196;13.868;2023-02-01T00:36:04;100700.72;;;20.55;32.53
68399;BME280;56258;52.196;13.868;2023-02-01T00:38:32;100684.88;;;20.66;32.79
68399;BME280;56258;52.196;13.868;2023-02-01T00:41:04;100697.91;;;20.78;31.85
68399;BME280;56258;52.196;13.868;2023-02-01T00:43:31;100706.78;;;20.93;31.74
68399;BME280;56258;52.196;13.868;2023-02-01T00:45:58;100701.19;;;20.94;31.82
68399;BME280;56258;52.196;13.868;2023-02-01T00:48:25;100696.97;;;21.07;32.11
68399;BME280;56258;52.196;13.868;2023-02-01T00:50:52;100705.25;;;21.05;32.12
68399;BME280;56258;52.196;13.868;2023-02-01T00:53:19;100706.09;;;21.06;32.25
68399;BME280;56258;52.196;13.868;2023-02-01T00:55:49;100704.72;;;21.10;31.79
68399;BME280;56258;52.196;13.868;2023-02-01T01:01:31;100706.25;;;21.19;31.35
68399;BME280;56258;52.196;13.868;2023-02-01T01:03:59;100713.88;;;21.30;31.64
68399;BME280;56258;52.196;13.868;2023-02-01T01:06:31;100712.34;;;21.42;31.41
68399;BME280;56258;52.196;13.868;2023-02-01T01:08:59;100711.03;;;21.38;31.45
68399;BME280;56258;52.196;13.868;2023-02-01T01:11:29;100720.78;;;21.33;32.15
68399;BME280;56258;52.196;13.868;2023-02-01T01:13:56;100718.28;;;21.31;32.41
68399;BME280;56258;52.196;13.868;2023-02-01T01:16:25;100720.97;;;21.31;31.86
68399;BME280;56258;52.196;13.868;2023-02-01T01:18:53;100719.13;;;21.32;31.61
68399;BME280;56258;52.196;13.868;2023-02-01T01:21:21;100701.66;;;21.34;32.04
68399;BME280;56258;52.196;13.868;2023-02-01T01:23:48;100707.06;;;21.34;31.90
68399;BME280;56258;52.196;13.868;2023-02-01T01:26:17;100709.13;;;21.32;32.10
68399;BME280;56258;52.196;13.868;2023-02-01T01:28:45;100715.38;;;21.33;31.93
68399;BME280;56258;52.196;13.868;2023-02-01T01:31:13;100712.72;;;21.39;32.21
68399;BME280;56258;52.196;13.868;2023-02-01T01:33:41;100696.25;;;21.34;31.77
68399;BME280;56258;52.196;13.868;2023-02-01T01:36:11;100693.16;;;21.37;32.14
68399;BME280;56258;52.196;13.868;2023-02-01T01:38:39;100696.75;;;21.44;31.61
68399;BME280;56258;52.196;13.868;2023-02-01T01:41:08;100707.78;;;21.43;32.08
68399;BME280;56258;52.196;13.868;2023-02-01T01:43:59;100704.47;;;21.47;32.05
68399;BME280;56258;52.196;13.868;2023-02-01T01:46:29;100689.47;;;21.45;31.89
68399;BME280;56258;52.196;13.868;2023-02-01T01:49:16;100686.19;;;21.49;32.25
68399;BME280;56258;52.196;13.868;2023-02-01T01:51:48;100683.47;;;21.49;32.03
68399;BME280;56258;52.196;13.868;2023-02-01T01:54:19;100676.66;;;21.53;31.88
68399;BME280;56258;52.196;13.868;2023-02-01T01:56:51;100681.63;;;21.50;32.07
68399;BME280;56258;52.196;13.868;2023-02-01T01:59:21;100677.63;;;21.46;32.41
68399;BME280;56258;52.196;13.868;2023-02-01T02:01:48;100682.06;;;21.53;31.41
68399;BME280;56258;52.196;13.868;2023-02-01T02:04:15;100674.97;;;21.52;31.88
68399;BME280;56258;52.196;13.868;2023-02-01T02:06:58;100678.72;;;21.51;31.52
68399;BME280;56258;52.196;13.868;2023-02-01T02:09:27;100683.34;;;21.58;32.17
68399;BME280;56258;52.196;13.868;2023-02-01T02:11:53;100657.06;;;21.51;31.71
68399;BME280;56258;52.196;13.868;2023-02-01T02:14:22;100666.72;;;21.61;31.46
68399;BME280;56258;52.196;13.868;2023-02-01T02:24:58;100678.66;;;21.66;31.32
68399;BME280;56258;52.196;13.868;2023-02-01T02:33:47;100679.84;;;21.64;31.66
68399;BME280;56258;52.196;13.868;2023-02-01T02:36:50;100672.84;;;21.69;31.38
68399;BME280;56258;52.196;13.868;2023-02-01T02:42:49;100672.22;;;21.74;31.82
68399;BME280;56258;52.196;13.868;2023-02-01T02:45:38;100658.06;;;21.72;32.00
68399;BME280;56258;52.196;13.868;2023-02-01T02:48:30;100670.16;;;21.76;31.46
68399;BME280;56258;52.196;13.868;2023-02-01T02:51:12;100668.06;;;21.71;31.78
68399;BME280;56258;52.196;13.868;2023-02-01T02:54:15;100668.69;;;21.73;32.05
68399;BME280;56258;52.196;13.868;2023-02-01T02:57:04;100673.53;;;21.78;32.06
68399;BME280;56258;52.196;13.868;2023-02-01T02:59:52;100671.84;;;21.77;31.51
68399;BME280;56258;52.196;13.868;2023-02-01T03:02:37;100685.63;;;21.82;31.61
68399;BME280;56258;52.196;13.868;2023-02-01T03:05:23;100676.47;;;21.83;31.47
68399;BME280;56258;52.196;13.868;2023-02-01T03:13:27;100672.31;;;21.87;31.85
68399;BME280;56258;52.196;13.868;2023-02-01T03:19:05;100668.41;;;21.90;31.77
68399;BME280;56258;52.196;13.868;2023-02-01T03:21:43;100662.59;;;21.93;31.64
68399;BME280;56258;52.196;13.868;2023-02-01T03:24:15;100664.47;;;21.92;31.99
68399;BME280;56258;52.196;13.868;2023-02-01T03:26:48;100659.06;;;21.92;31.40
68399;BME280;56258;52.196;13.868;2023-02-01T03:29:22;100642.81;;;21.92;31.71
68399;BME280;56258;52.196;13.868;2023-02-01T03:31:50;100656.34;;;21.92;31.57
68399;BME280;56258;52.196;13.868;2023-02-01T03:34:17;100653.88;;;21.97;31.08
68399;BME280;56258;52.196;13.868;2023-02-01T03:36:49;100660.72;;;21.93;31.68
68399;BME280;56258;52.196;13.868;2023-02-01T03:39:34;100655.31;;;21.93;31.86
68399;BME280;56258;52.196;13.868;2023-02-01T03:42:10;100642.41;;;21.95;31.49
68399;BME280;56258;52.196;13.868;2023-02-01T03:44:45;100644.28;;;21.95;31.61
68399;BME280;56258;52.196;13.868;2023-02-01T03:47:20;100638.03;;;21.94;32.07
68399;BME280;56258;52.196;13.868;2023-02-01T03:49:54;100654.50;;;21.99;31.53
68399;BME280;56258;52.196;13.868;2023-02-01T03:52:28;100637.47;;;22.05;31.05
68399;BME280;56258;52.196;13.868;2023-02-01T03:54:57;100626.53;;;22.20;30.57
68399;BME280;56258;52.196;13.868;2023-02-01T03:57:39;100630.91;;;22.15;30.97
68399;BME280;56258;52.196;13.868;2023-02-01T04:00:22;100618.69;;;21.97;31.66
68399;BME280;56258;52.196;13.868;2023-02-01T04:02:51;100617.75;;;21.83;31.96
68399;BME280;56258;52.196;13.868;2023-02-01T04:05:18;100604.50;;;21.61;32.14
68399;BME280;56258;52.196;13.868;2023-02-01T04:07:45;100612.53;;;21.47;32.04
68399;BME280;56258;52.196;13.868;2023-02-01T04:10:12;100610.75;;;21.33;32.17
68399;BME280;56258;52.196;13.868;2023-02-01T04:12:40;100616.91;;;21.27;32.11
68399;BME280;56258;52.196;13.868;2023-02-01T04:15:07;100617.19;;;21.11;32.46
68399;BME280;56258;52.196;13.868;2023-02-01T04:17:34;100610.84;;;21.04;32.61
68399;BME280;56258;52.196;13.868;2023-02-01T04:20:01;100597.19;;;20.84;32.76
68399;BME280;56258;52.196;13.868;2023-02-01T04:22:27;100608.16;;;20.82;32.66
68399;BME280;56258;52.196;13.868;2023-02-01T04:24:55;100608.94;;;20.76;32.68
68399;BME280;56258;52.196;13.868;2023-02-01T04:27:21;100606.63;;;20.73;32.64
68399;BME280;56258;52.196;13.868;2023-02-01T04:29:48;100613.41;;;20.69;32.82
68399;BME280;56258;52.196;13.868;2023-02-01T04:32:18;100613.28;;;20.56;33.30
68399;BME280;56258;52.196;13.868;2023-02-01T04:34:46;100597.78;;;20.64;32.98
68399;BME280;56258;52.196;13.868;2023-02-01T04:37:12;100612.97;;;20.65;32.86
68399;BME280;56258;52.196;13.868;2023-02-01T04:39:39;100613.81;;;20.66;32.84
68399;BME280;56258;52.196;13.868;2023-02-01T04:42:05;100605.31;;;20.69;32.75
68399;BME280;56258;52.196;13.868;2023-02-01T04:44:32;100604.66;;;20.67;32.57
68399;BME280;56258;52.196;13.868;2023-02-01T04:46:58;100608.66;;;20.71;32.94
68399;BME280;56258;52.196;13.868;2023-02-01T04:49:25;100602.59;;;20.69;32.31
68399;BME280;56258;52.196;13.868;2023-02-01T04:51:53;100595.28;;;20.63;32.46
68399;BME280;56258;52.196;13.868;2023-02-01T04:54:19;100592.84;;;20.68;32.19
68399;BME280;56258;52.196;13.868;2023-02-01T04:56:46;100598.44;;;20.66;32.59
68399;BME280;56258;52.196;13.868;2023-02-01T04:59:12;100585.31;;;20.63;32.41
68399;BME280;56258;52.196;13.868;2023-02-01T05:01:39;100574.03;;;20.60;32.57
68399;BME280;56258;52.196;13.868;2023-02-01T05:04:06;100586.25;;;20.56;32.48
68399;BME280;56258;52.196;13.868;2023-02-01T05:06:32;100573.78;;;20.55;32.52
68399;BME280;56258;52.196;13.868;2023-02-01T05:08:59;100583.38;;;20.57;32.66
68399;BME280;56258;52.196;13.868;2023-02-01T05:11:26;100571.38;;;20.45;32.56
68399;BME280;56258;52.196;13.868;2023-02-01T05:14:11;100576.25;;;20.50;32.27
68399;BME280;56258;52.196;13.868;2023-02-01T05:16:37;100563.69;;;20.42;32.24
68399;BME280;56258;52.196;13.868;2023-02-01T05:19:04;100582.75;;;20.40;32.54
68399;BME280;56258;52.196;13.868;2023-02-01T05:21:31;100572.34;;;20.37;32.75
68399;BME280;56258;52.196;13.868;2023-02-01T05:23:57;100573.16;;;20.38;32.65
68399;BME280;56258;52.196;13.868;2023-02-01T05:26:37;100575.88;;;20.38;32.76
68399;BME280;56258;52.196;13.868;2023-02-01T05:29:05;100576.59;;;20.32;32.20
68399;BME280;56258;52.196;13.868;2023-02-01T05:31:32;100568.72;;;20.30;32.15
68399;BME280;56258;52.196;13.868;2023-02-01T05:33:58;100562.28;;;20.31;32.34
68399;BME280;56258;52.196;13.868;2023-02-01T05:36:25;100565.16;;;20.30;32.68
68399;BME280;56258;52.196;13.868;2023-02-01T05:38:52;100555.59;;;20.27;32.36
68399;BME280;56258;52.196;13.868;2023-02-01T05:41:18;100552.69;;;20.29;32.43
68399;BME280;56258;52.196;13.868;2023-02-01T05:43:45;100555.13;;;20.24;32.91
68399;BME280;56258;52.196;13.868;2023-02-01T05:46:11;100552.22;;;20.25;32.49
68399;BME280;56258;52.196;13.868;2023-02-01T05:48:40;100557.63;;;20.25;32.62
68399;BME280;56258;52.196;13.868;2023-02-01T05:51:07;100559.22;;;20.20;32.44
68399;BME280;56258;52.196;13.868;2023-02-01T05:53:34;100551.31;;;20.18;32.07
68399;BME280;56258;52.196;13.868;2023-02-01T05:56:00;100536.16;;;20.17;32.24
68399;BME280;56258;52.196;13.868;2023-02-01T05:58:27;100542.84;;;20.21;32.40
68399;BME280;56258;52.196;13.868;2023-02-01T06:00:53;100545.53;;;20.21;32.67
68399;BME280;56258;52.196;13.868;2023-02-01T06:03:20;100540.72;;;20.17;32.60
68399;BME280;56258;52.196;13.868;2023-02-01T06:05:47;100541.75;;;20.16;32.36
68399;BME280;56258;52.196;13.868;2023-02-01T06:08:14;100543.97;;;20.12;32.54
68399;BME280;56258;52.196;13.868;2023-02-01T06:10:41;100540.63;;;20.10;32.68
68399;BME280;56258;52.196;13.868;2023-02-01T06:13:07;100543.34;;;20.10;32.62
68399;BME280;56258;52.196;13.868;2023-02-01T06:15:34;100542.94;;;20.13;32.67
68399;BME280;56258;52.196;13.868;2023-02-01T06:18:04;100548.34;;;20.13;32.49
68399;BME280;56258;52.196;13.868;2023-02-01T06:20:30;100542.94;;;20.13;32.52
68399;BME280;56258;52.196;13.868;2023-02-01T06:22:57;100538.97;;;20.09;32.91
68399;BME280;56258;52.196;13.868;2023-02-01T06:25:24;100541.28;;;20.12;32.29
68399;BME280;56258;52.196;13.868;2023-02-01T06:27:50;100543.13;;;20.11;32.79
68399;BME280;56258;52.196;13.868;2023-02-01T06:30:17;100545.00;;;20.11;32.80
68399;BME280;56258;52.196;13.868;2023-02-01T06:32:44;100530.59;;;20.04;32.62
68399;BME280;56258;52.196;13.868;2023-02-01T06:35:10;100535.63;;;20.07;32.49
68399;BME280;56258;52.196;13.868;2023-02-01T06:37:42;100523.69;;;20.01;32.96
68399;BME280;56258;52.196;13.868;2023-02-01T06:43:56;100530.50;;;19.97;32.53
68399;BME280;56258;52.196;13.868;2023-02-01T06:46:23;100533.03;;;19.99;32.54
68399;BME280;56258;52.196;13.868;2023-02-01T06:48:49;100532.00;;;20.00;32.79
68399;BME280;56258;52.196;13.868;2023-02-01T06:51:25;100522.22;;;19.99;32.98
68399;BME280;56258;52.196;13.868;2023-02-01T06:53:52;100527.44;;;20.00;32.83
68399;BME280;56258;52.196;13.868;2023-02-01T06:56:18;100524.91;;;19.99;32.78
68399;BME280;56258;52.196;13.868;2023-02-01T06:58:46;100524.72;;;20.00;32.66
68399;BME280;56258;52.196;13.868;2023-02-01T07:01:14;100533.66;;;20.01;32.53
68399;BME280;56258;52.196;13.868;2023-02-01T07:03:47;100522.03;;;20.00;32.60
68399;BME280;56258;52.196;13.868;2023-02-01T07:06:13;100532.53;;;20.10;32.78
68399;BME280;56258;52.196;13.868;2023-02-01T07:08:40;100528.81;;;20.11;32.92
68399;BME280;56258;52.196;13.868;2023-02-01T07:11:09;100529.84;;;20.10;33.30
68399;BME280;56258;52.196;13.868;2023-02-01T07:13:38;100533.72;;;20.22;33.63
68399;BME280;56258;52.196;13.868;2023-02-01T07:16:09;100540.13;;;20.21;33.80
68399;BME280;56258;52.196;13.868;2023-02-01T07:18:37;100529.63;;;20.26;32.97
68399;BME280;56258;52.196;13.868;2023-02-01T07:21:05;100520.66;;;20.26;32.92
68399;BME280;56258;52.196;13.868;2023-02-01T07:23:32;100515.56;;;20.31;32.66
68399;BME280;56258;52.196;13.868;2023-02-01T07:26:02;100504.09;;;20.29;32.84
68399;BME280;56258;52.196;13.868;2023-02-01T07:28:31;100509.69;;;20.27;32.59
68399;BME280;56258;52.196;13.868;2023-02-01T07:31:06;100503.19;;;20.22;32.47
68399;BME280;56258;52.196;13.868;2023-02-01T07:33:33;100497.97;;;20.20;33.24
68399;BME280;56258;52.196;13.868;2023-02-01T07:36:04;100484.50;;;20.20;33.32
68399;BME280;56258;52.196;13.868;2023-02-01T07:38:31;100496.31;;;20.19;33.07
68399;BME280;56258;52.196;13.868;2023-02-01T07:40:59;100492.13;;;20.17;32.98
68399;BME280;56258;52.196;13.868;2023-02-01T07:43:27;100478.66;;;20.17;33.05
68399;BME280;56258;52.196;13.868;2023-02-01T07:45:55;100479.41;;;20.10;33.06
68399;BME280;56258;52.196;13.868;2023-02-01T07:48:23;100476.13;;;20.15;33.30
68399;BME280;56258;52.196;13.868;2023-02-01T07:53:25;100470.25;;;20.11;32.91
68399;BME280;56258;52.196;13.868;2023-02-01T07:55:52;100460.69;;;20.09;32.98
68399;BME280;56258;52.196;13.868;2023-02-01T07:58:19;100454.56;;;20.15;32.65
68399;BME280;56258;52.196;13.868;2023-02-01T08:00:45;100451.47;;;20.18;33.09
68399;BME280;56258;52.196;13.868;2023-02-01T08:03:31;100441.22;;;20.14;32.90
68399;BME280;56258;52.196;13.868;2023-02-01T08:05:57;100450.34;;;20.13;33.06
68399;BME280;56258;52.196;13.868;2023-02-01T08:08:24;100452.22;;;20.12;32.96
68399;BME280;56258;52.196;13.868;2023-02-01T08:10:51;100441.81;;;20.09;33.22
68399;BME280;56258;52.196;13.868;2023-02-01T08:13:17;100445.94;;;20.05;32.87
68399;BME280;56258;52.196;13.868;2023-02-01T08:15:44;100446.75;;;20.05;33.08
68399;BME280;56258;52.196;13.868;2023-02-01T08:18:11;100444.06;;;20.05;32.75
68399;BME280;56258;52.196;13.868;2023-02-01T08:20:37;100436.16;;;20.04;32.74
68399;BME280;56258;52.196;13.868;2023-02-01T08:23:08;100435.69;;;20.00;32.96
68399;BME280;56258;52.196;13.868;2023-02-01T08:25:35;100438.19;;;20.02;32.79
68399;BME280;56258;52.196;13.868;2023-02-01T08:28:02;100435.13;;;20.05;32.64
68399;BME280;56258;52.196;13.868;2023-02-01T08:30:29;100433.63;;;20.02;32.96
68399;BME280;56258;52.196;13.868;2023-02-01T08:32:57;100427.22;;;20.03;32.57
68399;BME280;56258;52.196;13.868;2023-02-01T08:35:23;100434.84;;;20.00;32.76
68399;BME280;56258;52.196;13.868;2023-02-01T08:38:07;100426.94;;;19.98;32.81
68399;BME280;56258;52.196;13.868;2023-02-01T08:40:34;100429.44;;;20.00;33.09
68399;BME280;56258;52.196;13.868;2023-02-01T08:43:01;100426.41;;;20.03;33.00
68399;BME280;56258;52.196;13.868;2023-02-01T08:45:29;100418.31;;;20.03;32.75
68399;BME280;56258;52.196;13.868;2023-02-01T08:47:56;100419.78;;;20.05;32.44
68399;BME280;56258;52.196;13.868;2023-02-01T08:50:24;100423.22;;;19.99;32.83
68399;BME280;56258;52.196;13.868;2023-02-01T08:52:53;100424.06;;;20.00;33.15
68399;BME280;56258;52.196;13.868;2023-02-01T08:55:20;100428.81;;;19.98;32.73
68399;BME280;56258;52.196;13.868;2023-02-01T08:57:47;100431.31;;;19.99;32.99
68399;BME280;56258;52.196;13.868;2023-02-01T09:00:16;100419.31;;;20.02;33.19
68399;BME280;56258;52.196;13.868;2023-02-01T09:02:44;100416.16;;;19.98;33.35
68399;BME280;56258;52.196;13.868;2023-02-01T09:05:11;100413.84;;;19.95;33.34
68399;BME280;56258;52.196;13.868;2023-02-01T09:07:38;100423.03;;;20.01;33.26
68399;BME280;56258;52.196;13.868;2023-02-01T09:10:05;100414.50;;;19.97;33.09
68399;BME280;56258;52.196;13.868;2023-02-01T09:12:33;100429.66;;;19.98;32.86
68399;BME280;56258;52.196;13.868;2023-02-01T09:15:00;100431.06;;;19.94;33.37
68399;BME280;56258;52.196;13.868;2023-02-01T09:17:28;100434.00;;;19.99;32.91
68399;BME280;56258;52.196;13.868;2023-02-01T09:19:55;100449.19;;;20.00;33.21
68399;BME280;56258;52.196;13.868;2023-02-01T09:22:22;100451.44;;;19.97;33.18
68399;BME280;56258;52.196;13.868;2023-02-01T09:24:49;100454.88;;;19.91;33.02
68399;BME280;56258;52.196;13.868;2023-02-01T09:27:16;100448.47;;;19.92;33.26
68399;BME280;56258;52.196;13.868;2023-02-01T09:29:42;100447.16;;;19.88;33.21
68399;BME280;56258;52.196;13.868;2023-02-01T09:32:09;100461.28;;;19.90;33.42
68399;BME280;56258;52.196;13.868;2023-02-01T09:34:36;100470.06;;;19.92;33.23
68399;BME280;56258;52.196;13.868;2023-02-01T09:37:02;100451.09;;;19.85;33.34
68399;BME280;56258;52.196;13.868;2023-02-01T09:39:29;100465.78;;;19.83;33.36
68399;BME280;56258;52.196;13.868;2023-02-01T09:47:18;100506.06;;;19.84;32.96
68399;BME280;56258;52.196;13.868;2023-02-01T09:52:17;100519.38;;;19.86;32.95
68399;BME280;56258;52.196;13.868;2023-02-01T09:54:53;100513.13;;;19.85;33.17
68399;BME280;56258;52.196;13.868;2023-02-01T09:57:26;100515.63;;;19.87;32.90
68399;BME280;56258;52.196;13.868;2023-02-01T10:00:03;100505.69;;;19.87;33.01
68399;BME280;56258;52.196;13.868;2023-02-01T10:02:35;100503.63;;;19.89;32.97
68399;BME280;56258;52.196;13.868;2023-02-01T10:05:05;100512.09;;;19.86;33.03
68399;BME280;56258;52.196;13.868;2023-02-01T10:07:47;100514.81;;;19.86;32.94
68399;BME280;56258;52.196;13.868;2023-02-01T10:21:48;100525.22;;;19.89;32.71
68399;BME280;56258;52.196;13.868;2023-02-01T10:27:02;100524.91;;;19.99;32.83
68399;BME280;56258;52.196;13.868;2023-02-01T10:29:38;100522.03;;;20.00;32.96
68399;BME280;56258;52.196;13.868;2023-02-01T10:32:29;100522.03;;;20.00;33.07
68399;BME280;56258;52.196;13.868;2023-02-01T10:35:01;100534.25;;;19.96;32.56
68399;BME280;56258;52.196;13.868;2023-02-01T10:37:33;100527.63;;;19.99;33.17
68399;BME280;56258;52.196;13.868;2023-02-01T10:40:12;100535.25;;;19.95;32.97
68399;BME280;56258;52.196;13.868;2023-02-01T10:42:40;100531.34;;;19.98;33.09
68399;BME280;56258;52.196;13.868;2023-02-01T10:45:11;100535.47;;;19.94;32.96
68399;BME280;56258;52.196;13.868;2023-02-01T10:47:39;100544.19;;;19.96;32.99
68399;BME280;56258;52.196;13.868;2023-02-01T10:50:15;100535.06;;;19.97;32.68
68399;BME280;56258;52.196;13.868;2023-02-01T10:52:54;100522.41;;;19.97;32.74
68399;BME280;56258;52.196;13.868;2023-02-01T10:57:57;100543.34;;;20.10;32.51
68399;BME280;56258;52.196;13.868;2023-02-01T11:00:26;100541.22;;;20.05;32.64
68399;BME280;56258;52.196;13.868;2023-02-01T11:02:53;100545.38;;;20.08;33.18
68399;BME280;56258;52.196;13.868;2023-02-01T11:05:20;100539.72;;;20.03;32.78
68399;BME280;56258;52.196;13.868;2023-02-01T11:07:50;100534.16;;;20.04;33.01
68399;BME280;56258;52.196;13.868;2023-02-01T11:10:38;100547.72;;;19.96;33.00
68399;BME280;56258;52.196;13.868;2023-02-01T11:13:13;100557.41;;;19.91;32.92
68399;BME280;56258;52.196;13.868;2023-02-01T11:15:46;100553.69;;;19.92;33.11
68399;BME280;56258;52.196;13.868;2023-02-01T11:18:31;100554.69;;;19.91;32.93
68399;BME280;56258;52.196;13.868;2023-02-01T11:20:58;100550.06;;;19.85;33.05
68399;BME280;56258;52.196;13.868;2023-02-01T11:23:27;100553.84;;;19.90;33.07
68399;BME280;56258;52.196;13.868;2023-02-01T11:25:57;100533.03;;;19.84;33.03
68399;BME280;56258;52.196;13.868;2023-02-01T11:28:35;100542.53;;;19.95;32.85
68399;BME280;56258;52.196;13.868;2023-02-01T11:31:07;100534.69;;;20.00;33.03
68399;BME280;56258;52.196;13.868;2023-02-01T11:33:45;100531.63;;;20.03;32.99
68399;BME280;56258;52.196;13.868;2023-02-01T11:36:16;100519.69;;;20.12;32.46
68399;BME280;56258;52.196;13.868;2023-02-01T11:38:54;100511.81;;;20.32;32.29
68399;BME280;56258;52.196;13.868;2023-02-01T11:41:24;100506.09;;;20.20;32.33
68399;BME280;56258;52.196;13.868;2023-02-01T11:43:57;100507.31;;;20.18;32.36
68399;BME280;56258;52.196;13.868;2023-02-01T11:46:35;100518.22;;;20.09;32.44
68399;BME280;56258;52.196;13.868;2023-02-01T11:52:07;100513.09;;;20.00;32.68
68399;BME280;56258;52.196;13.868;2023-02-01T11:55:12;100510.22;;;20.01;33.04
68399;BME280;56258;52.196;13.868;2023-02-01T12:12:25;100498.31;;;19.96;32.44
68399;BME280;56258;52.196;13.868;2023-02-01T12:31:16;100479.47;;;20.17;33.01
68399;BME280;56258;52.196;13.868;2023-02-01T12:36:18;100467.38;;;20.13;32.52
68399;BME280;56258;52.196;13.868;2023-02-01T12:43:58;100451.44;;;19.97;33.09
68399;BME280;56258;52.196;13.868;2023-02-01T12:49:47;100448.34;;;20.00;33.02
68399;BME280;56258;52.196;13.868;2023-02-01T12:52:39;100443.03;;;20.06;32.51
68399;BME280;56258;52.196;13.868;2023-02-01T12:55:49;100430.56;;;20.05;32.97
68399;BME280;56258;52.196;13.868;2023-02-01T12:58:23;100425.41;;;20.10;32.73
68399;BME280;56258;52.196;13.868;2023-02-01T13:01:02;100420.31;;;20.01;32.98
68399;BME280;56258;52.196;13.868;2023-02-01T13:03:41;100415.59;;;20.03;33.18
68399;BME280;56258;52.196;13.868;2023-02-01T13:06:19;100424.59;;;20.31;32.36
68399;BME280;56258;52.196;13.868;2023-02-01T13:09:09;100425.81;;;20.29;32.85
68399;BME280;56258;52.196;13.868;2023-02-01T13:11:43;100410.00;;;20.26;32.25
68399;BME280;56258;52.196;13.868;2023-02-01T13:14:35;100415.97;;;20.21;32.51
68399;BME280;56258;52.196;13.868;2023-02-01T13:17:09;100421.38;;;20.21;32.95
68399;BME280;56258;52.196;13.868;2023-02-01T13:19:52;100422.47;;;20.27;32.53
68399;BME280;56258;52.196;13.868;2023-02-01T13:22:27;100428.06;;;20.25;32.30
68399;BME280;56258;52.196;13.868;2023-02-01T13:25:01;100416.81;;;20.22;32.55
68399;BME280;56258;52.196;13.868;2023-02-01T13:27:30;100410.59;;;20.21;32.60
68399;BME280;56258;52.196;13.868;2023-02-01T13:30:18;100419.41;;;20.30;32.54
68399;BME280;56258;52.196;13.868;2023-02-01T13:33:25;100419.84;;;20.33;32.58
68399;BME280;56258;52.196;13.868;2023-02-01T13:39:21;100414.56;;;20.25;32.15
68399;BME280;56258;52.196;13.868;2023-02-01T13:42:01;100396.66;;;20.18;32.66
68399;BME280;56258;52.196;13.868;2023-02-01T13:44:32;100398.50;;;20.17;32.45
68399;BME280;56258;52.196;13.868;2023-02-01T13:47:02;100394.34;;;20.15;32.65
68399;BME280;56258;52.196;13.868;2023-02-01T13:49:36;100380.84;;;20.15;32.52
68399;BME280;56258;52.196;13.868;2023-02-01T13:52:04;100390.13;;;20.12;32.55
68399;BME280;56258;52.196;13.868;2023-02-01T13:54:32;100388.06;;;20.14;32.93
68399;BME280;56258;52.196;13.868;2023-02-01T13:57:00;100387.44;;;20.12;32.38
68399;BME280;56258;52.196;13.868;2023-02-01T14:05:09;100373.63;;;20.00;33.16
68399;BME280;56258;52.196;13.868;2023-02-01T14:07:36;100380.53;;;20.03;32.91
68399;BME280;56258;52.196;13.868;2023-02-01T14:21:30;100372.97;;;19.98;32.86
68399;BME280;56258;52.196;13.868;2023-02-01T14:24:41;100373.56;;;19.94;32.80
68399;BME280;56258;52.196;13.868;2023-02-01T14:26:53;100371.63;;;19.88;33.12
68399;BME280;56258;52.196;13.868;2023-02-01T14:32:01;100359.63;;;19.90;33.24
68399;BME280;56258;52.196;13.868;2023-02-01T14:40:06;100347.34;;;19.88;33.39
68399;BME280;56258;52.196;13.868;2023-02-01T14:55:47;100320.44;;;19.73;33.14
68399;BME280;56258;52.196;13.868;2023-02-01T14:58:44;100324.22;;;19.78;33.24
68399;BME280;56258;52.196;13.868;2023-02-01T15:01:30;100311.50;;;19.72;33.19
68399;BME280;56258;52.196;13.868;2023-02-01T15:04:15;100308.44;;;19.75;32.91
68399;BME280;56258;52.196;13.868;2023-02-01T15:06:53;100303.03;;;19.75;32.99
68399;BME280;56258;52.196;13.868;2023-02-01T15:09:33;100305.34;;;19.78;33.42
68399;BME280;56258;52.196;13.868;2023-02-01T15:14:35;100293.06;;;19.76;32.99
68399;BME280;56258;52.196;13.868;2023-02-01T15:17:20;100294.19;;;19.81;33.18
68399;BME280;56258;52.196;13.868;2023-02-01T15:20:03;100301.81;;;19.78;33.06
68399;BME280;56258;52.196;13.868;2023-02-01T15:22:34;100291.50;;;19.81;33.12
68399;BME280;56258;52.196;13.868;2023-02-01T15:25:01;100289.81;;;19.80;32.96
68399;BME280;56258;52.196;13.868;2023-02-01T15:27:36;100288.13;;;19.79;32.90
68399;BME280;56258;52.196;13.868;2023-02-01T15:30:08;100297.53;;;19.84;33.33
68399;BME280;56258;52.196;13.868;2023-02-01T15:32:38;100308.31;;;19.84;33.03